createdAt,value
2022-11-09T00:01:04.772Z,98820.25
2022-11-09T00:03:31.773Z,98811.81
2022-11-09T00:06:00.365Z,98809.38
2022-11-09T00:08:27.713Z,98806.91
2022-11-09T00:10:54.610Z,98806.13
2022-11-09T00:13:22.300Z,98801.13
2022-11-09T00:15:49.369Z,98793.63
2022-11-09T00:18:16.088Z,98797.13
2022-11-09T00:20:47.225Z,98795.44
2022-11-09T00:23:16.723Z,98795.53
2022-11-09T00:25:43.816Z,98781.13
2022-11-09T00:28:10.522Z,98779.53
2022-11-09T00:30:37.272Z,98779.63
2022-11-09T00:33:04.035Z,98782.34
2022-11-09T00:35:30.744Z,98781.63
2022-11-09T00:37:57.520Z,98790.25
2022-11-09T00:40:24.574Z,98792.06
2022-11-09T00:42:51.772Z,98787.06
2022-11-09T00:45:18.548Z,98774.41
2022-11-09T00:47:45.247Z,98779.66
2022-11-09T00:50:11.988Z,98766.16
2022-11-09T00:52:38.698Z,98779.91
2022-11-09T00:55:05.807Z,98774.00
2022-11-09T00:57:32.613Z,98779.19
2022-11-09T00:59:59.364Z,98777.59
2022-11-09T01:02:26.156Z,98781.94
2022-11-09T01:04:52.880Z,98785.38
2022-11-09T01:07:19.625Z,98790.56
2022-11-09T01:09:46.383Z,98786.28
2022-11-09T01:12:13.134Z,98794.09
2022-11-09T01:14:39.833Z,98798.34
2022-11-09T01:17:06.552Z,98793.28
2022-11-09T01:19:33.278Z,98796.72
2022-11-09T01:21:59.996Z,98799.41
2022-11-09T01:24:26.681Z,98798.59
2022-11-09T01:26:53.372Z,98805.41
2022-11-09T01:29:20.039Z,98807.97
2022-11-09T01:31:48.441Z,98825.84
2022-11-09T01:34:17.410Z,98818.25
2022-11-09T01:36:44.276Z,98825.09
2022-11-09T01:39:11.370Z,98828.53
2022-11-09T01:41:38.103Z,98822.66
2022-11-09T01:44:18.089Z,98809.13
2022-11-09T01:46:50.822Z,98812.63
2022-11-09T01:49:41.087Z,98816.94
2022-11-09T01:52:31.283Z,98825.63
2022-11-09T01:55:09.038Z,98815.47
2022-11-09T01:57:49.946Z,98824.84
2022-11-09T02:00:18.137Z,98807.81
2022-11-09T02:02:52.900Z,98809.47
2022-11-09T02:05:26.436Z,98806.94
2022-11-09T02:07:53.972Z,98812.06
2022-11-09T02:10:45.344Z,98813.94
2022-11-09T02:13:16.846Z,98819.09
2022-11-09T02:15:45.935Z,98812.31
2022-11-09T02:18:13.146Z,98803.94
2022-11-09T02:21:06.302Z,98807.31
2022-11-09T02:23:33.070Z,98806.66
2022-11-09T02:26:07.423Z,98813.44
2022-11-09T02:28:37.139Z,98811.75
2022-11-09T02:31:10.610Z,98820.28
2022-11-09T02:33:55.497Z,98818.63
2022-11-09T02:36:24.006Z,98815.34
2022-11-09T02:38:54.389Z,98812.09
2022-11-09T02:41:23.035Z,98813.78
2022-11-09T02:43:53.603Z,98818.03
2022-11-09T02:46:34.267Z,98806.97
2022-11-09T02:49:02.421Z,98812.09
2022-11-09T02:51:29.207Z,98813.03
2022-11-09T02:53:56.267Z,98811.38
2022-11-09T02:56:23.151Z,98818.09
2022-11-09T02:58:49.961Z,98820.69
2022-11-09T03:01:16.740Z,98818.97
2022-11-09T03:03:43.709Z,98825.03
2022-11-09T03:06:10.597Z,98818.97
2022-11-09T03:08:37.417Z,98828.41
2022-11-09T03:11:06.080Z,98822.41
2022-11-09T03:13:34.477Z,98828.38
2022-11-09T03:16:09.360Z,98829.97
2022-11-09T03:18:36.305Z,98823.94
2022-11-09T03:21:06.732Z,98823.06
2022-11-09T03:23:34.143Z,98818.03
2022-11-09T03:26:00.867Z,98826.50
2022-11-09T03:28:27.589Z,98832.53
2022-11-09T03:30:54.551Z,98833.41
2022-11-09T03:33:21.939Z,98831.69
2022-11-09T03:35:49.263Z,98832.53
2022-11-09T03:38:16.016Z,98829.91
2022-11-09T03:40:42.725Z,98837.56
2022-11-09T03:43:09.519Z,98842.63
2022-11-09T03:45:36.522Z,98846.06
2022-11-09T03:48:03.582Z,98841.84
2022-11-09T03:50:33.429Z,98842.63
2022-11-09T03:53:01.586Z,98843.56
2022-11-09T03:55:29.206Z,98854.63
2022-11-09T03:57:55.921Z,98865.63
2022-11-09T04:00:23.987Z,98852.84
2022-11-09T04:02:51.661Z,98859.56
2022-11-09T04:05:19.036Z,98859.50
2022-11-09T04:07:57.505Z,98865.41
2022-11-09T04:10:26.477Z,98869.56
2022-11-09T04:12:53.549Z,98862.59
2022-11-09T04:15:21.129Z,98863.38
2022-11-09T04:17:59.387Z,98870.94
2022-11-09T04:20:28.952Z,98871.72
2022-11-09T04:23:03.428Z,98872.47
2022-11-09T04:25:36.457Z,98875.81
2022-11-09T04:28:05.808Z,98873.19
2022-11-09T04:30:35.449Z,98867.19
2022-11-09T04:33:03.273Z,98875.69
2022-11-09T04:35:32.836Z,98874.72
2022-11-09T04:38:07.406Z,98877.34
2022-11-09T04:40:36.056Z,98881.66
2022-11-09T04:43:06.228Z,98879.91
2022-11-09T04:45:34.798Z,98879.78
2022-11-09T04:48:04.803Z,98879.84
2022-11-09T04:50:32.623Z,98882.34
2022-11-09T04:53:11.736Z,98890.00
2022-11-09T04:55:38.780Z,98896.03
2022-11-09T04:58:06.618Z,98898.53
2022-11-09T05:00:33.838Z,98907.81
2022-11-09T05:03:06.553Z,98906.94
2022-11-09T05:05:35.421Z,98904.47
2022-11-09T05:08:02.824Z,98905.34
2022-11-09T05:10:30.066Z,98916.59
2022-11-09T05:13:01.222Z,98917.59
2022-11-09T05:15:28.731Z,98912.72
2022-11-09T05:17:56.052Z,98924.88
2022-11-09T05:20:23.166Z,98932.81
2022-11-09T05:23:08.400Z,98929.66
2022-11-09T05:25:35.392Z,98914.66
2022-11-09T05:28:02.432Z,98925.06
2022-11-09T05:30:29.237Z,98920.25
2022-11-09T05:32:56.033Z,98919.78
2022-11-09T05:35:22.990Z,98918.59
2022-11-09T05:37:50.600Z,98921.63
2022-11-09T05:40:19.517Z,98911.91
2022-11-09T05:42:46.897Z,98909.69
2022-11-09T05:48:04.932Z,98909.25
2022-11-09T05:50:31.768Z,98914.47
2022-11-09T05:53:02.306Z,98911.19
2022-11-09T05:55:29.057Z,98917.31
2022-11-09T05:57:56.343Z,98912.34
2022-11-09T06:00:23.432Z,98908.34
2022-11-09T06:02:50.330Z,98898.31
2022-11-09T06:05:17.828Z,98907.00
2022-11-09T06:07:44.543Z,98908.94
2022-11-09T06:10:12.815Z,98910.78
2022-11-09T06:12:39.526Z,98913.38
2022-11-09T06:15:06.859Z,98913.47
2022-11-09T06:17:33.583Z,98911.03
2022-11-09T06:20:00.295Z,98914.56
2022-11-09T06:22:27.177Z,98915.44
2022-11-09T06:24:53.858Z,98923.13
2022-11-09T06:27:20.560Z,98927.44
2022-11-09T06:29:47.279Z,98931.69
2022-11-09T06:32:13.987Z,98928.31
2022-11-09T06:34:40.759Z,98939.34
2022-11-09T06:37:07.452Z,98939.28
2022-11-09T06:39:34.161Z,98933.38
2022-11-09T06:42:01.360Z,98941.84
2022-11-09T06:44:28.179Z,98945.31
2022-11-09T06:46:55.176Z,98950.53
2022-11-09T06:49:21.887Z,98954.88
2022-11-09T06:51:48.728Z,98957.50
2022-11-09T06:54:15.580Z,98950.81
2022-11-09T06:56:42.385Z,98948.41
2022-11-09T06:59:09.177Z,98952.69
2022-11-09T07:01:37.734Z,98959.63
2022-11-09T07:04:04.924Z,98952.91
2022-11-09T07:06:31.735Z,98956.31
2022-11-09T07:08:58.495Z,98959.75
2022-11-09T07:11:25.311Z,98970.75
2022-11-09T07:13:57.115Z,98974.16
2022-11-09T07:16:24.497Z,98966.56
2022-11-09T07:18:51.253Z,98969.09
2022-11-09T07:21:18.512Z,98972.44
2022-11-09T07:23:48.882Z,98975.69
2022-11-09T07:26:16.979Z,98978.13
2022-11-09T07:28:44.188Z,98977.16
2022-11-09T07:31:11.046Z,98986.28
2022-11-09T07:33:38.061Z,98986.84
2022-11-09T07:36:06.103Z,98984.78
2022-11-09T07:38:33.054Z,98987.47
2022-11-09T07:41:01.386Z,98989.03
2022-11-09T07:43:29.172Z,98985.16
2022-11-09T07:45:56.381Z,98989.69
2022-11-09T07:48:23.642Z,98984.69
2022-11-09T07:50:50.508Z,98982.16
2022-11-09T07:53:17.922Z,98987.25
2022-11-09T07:55:44.818Z,98988.91
2022-11-09T07:58:14.996Z,99001.66
2022-11-09T08:00:43.242Z,98997.78
2022-11-09T08:03:10.745Z,98997.56
2022-11-09T08:05:38.531Z,98994.44
2022-11-09T08:08:10.302Z,98990.66
2022-11-09T08:10:38.729Z,98996.06
2022-11-09T08:13:14.048Z,98995.09
2022-11-09T08:15:42.383Z,98999.34
2022-11-09T08:18:15.209Z,98985.69
2022-11-09T08:20:41.977Z,98990.00
2022-11-09T08:23:13.351Z,98995.41
2022-11-09T08:25:41.119Z,98995.78
2022-11-09T08:28:14.325Z,98994.47
2022-11-09T08:30:42.919Z,98995.38
2022-11-09T08:33:10.410Z,98999.13
2022-11-09T08:35:37.356Z,99001.94
2022-11-09T08:38:05.879Z,99004.91
2022-11-09T08:40:33.926Z,99021.06
2022-11-09T08:43:07.484Z,99013.00
2022-11-09T08:45:37.972Z,99008.41
2022-11-09T08:48:06.378Z,99009.44
2022-11-09T08:50:36.014Z,99020.19
2022-11-09T08:53:04.336Z,99012.28
2022-11-09T08:55:31.318Z,99011.78
2022-11-09T08:58:01.098Z,99020.03
2022-11-09T09:00:28.874Z,99012.63
2022-11-09T09:02:55.711Z,99013.47
2022-11-09T09:05:22.984Z,99006.94
2022-11-09T09:07:49.674Z,99018.38
2022-11-09T09:10:16.484Z,99014.03
2022-11-09T09:12:43.226Z,99014.06
2022-11-09T09:15:10.085Z,99024.53
2022-11-09T09:17:36.802Z,99018.91
2022-11-09T09:20:05.671Z,99019.72
2022-11-09T09:22:33.306Z,99027.84
2022-11-09T09:25:00.264Z,99029.34
2022-11-09T09:27:27.314Z,99022.50
2022-11-09T09:29:54.032Z,99026.53
2022-11-09T09:32:20.886Z,99032.75
2022-11-09T09:34:47.692Z,99025.28
2022-11-09T09:37:15.640Z,99036.91
2022-11-09T09:39:42.384Z,99039.25
2022-11-09T09:42:19.971Z,99045.34
2022-11-09T09:44:56.201Z,99047.06
2022-11-09T09:47:54.477Z,99051.47
2022-11-09T09:50:31.399Z,99057.53
2022-11-09T09:53:23.837Z,99059.06
2022-11-09T09:56:18.072Z,99067.91
2022-11-09T09:59:25.760Z,99070.09
2022-11-09T10:01:53.028Z,99084.66
2022-11-09T10:04:25.364Z,99082.19
2022-11-09T10:07:13.903Z,99080.50
2022-11-09T10:10:10.801Z,99088.16
2022-11-09T10:13:04.673Z,99086.44
2022-11-09T10:15:55.151Z,99084.66
2022-11-09T10:18:44.656Z,99092.31
2022-11-09T10:21:24.326Z,99097.94
2022-11-09T10:24:18.348Z,99093.06
2022-11-09T10:26:56.905Z,99096.69
2022-11-09T10:29:38.573Z,99097.41
2022-11-09T10:32:20.894Z,99089.28
2022-11-09T10:35:05.828Z,99097.19
2022-11-09T10:37:44.356Z,99096.66
2022-11-09T10:40:31.439Z,99102.16
2022-11-09T10:43:02.544Z,99097.22
2022-11-09T10:45:38.730Z,99097.16
2022-11-09T10:48:08.225Z,99086.50
2022-11-09T10:50:53.957Z,99098.31
2022-11-09T10:53:30.184Z,99088.69
2022-11-09T10:56:20.884Z,99091.28
2022-11-09T10:58:51.885Z,99090.84
2022-11-09T11:01:24.271Z,99088.16
2022-11-09T11:03:54.252Z,99094.28
2022-11-09T11:06:28.153Z,99091.38
2022-11-09T11:08:57.927Z,99088.78
2022-11-09T11:11:35.109Z,99102.03
2022-11-09T11:14:28.937Z,99098.63
2022-11-09T11:16:56.285Z,99085.88
2022-11-09T11:19:41.186Z,99085.50
2022-11-09T11:22:14.389Z,99097.75
2022-11-09T11:25:03.163Z,99086.00
2022-11-09T11:28:00.714Z,99081.72
2022-11-09T11:30:36.136Z,99094.19
2022-11-09T11:33:16.698Z,99094.56
2022-11-09T11:36:18.351Z,99104.38
2022-11-09T11:39:19.941Z,99103.28
2022-11-09T11:42:27.019Z,99106.34
2022-11-09T11:45:34.022Z,99114.41
2022-11-09T11:48:38.520Z,99107.91
2022-11-09T11:51:29.966Z,99113.38
2022-11-09T11:54:34.131Z,99114.22
2022-11-09T11:57:27.513Z,99114.63
2022-11-09T12:00:13.525Z,99111.38
2022-11-09T12:03:27.174Z,99111.09
2022-11-09T12:06:21.423Z,99106.47
2022-11-09T12:08:51.575Z,99122.34
2022-11-09T12:11:58.908Z,99105.81
2022-11-09T12:15:00.614Z,99112.38
2022-11-09T12:17:53.366Z,99118.56
2022-11-09T12:20:23.814Z,99122.78
2022-11-09T12:23:25.396Z,99120.94
2022-11-09T12:26:34.251Z,99132.22
2022-11-09T12:29:23.453Z,99132.88
2022-11-09T12:32:03.788Z,99137.63
2022-11-09T12:35:14.095Z,99136.75
2022-11-09T12:37:53.733Z,99124.63
2022-11-09T12:40:42.610Z,99132.22
2022-11-09T12:43:39.384Z,99130.38
2022-11-09T12:46:09.248Z,99127.56
2022-11-09T12:48:36.143Z,99133.28
2022-11-09T12:51:07.400Z,99137.94
2022-11-09T12:53:38.500Z,99137.53
2022-11-09T12:56:22.584Z,99142.22
2022-11-09T12:58:49.566Z,99150.25
2022-11-09T13:01:34.463Z,99143.59
2022-11-09T13:04:04.556Z,99138.69
2022-11-09T13:06:33.664Z,99144.91
2022-11-09T13:09:15.651Z,99149.47
2022-11-09T13:11:49.285Z,99151.41
2022-11-09T13:14:22.016Z,99156.75
2022-11-09T13:17:18.803Z,99151.78
2022-11-09T13:19:45.413Z,99156.94
2022-11-09T13:22:15.139Z,99156.19
2022-11-09T13:25:01.601Z,99156.38
2022-11-09T13:27:48.677Z,99155.00
2022-11-09T13:30:28.273Z,99148.44
2022-11-09T13:33:07.272Z,99153.84
2022-11-09T13:35:40.050Z,99151.53
2022-11-09T13:38:22.270Z,99153.41
2022-11-09T13:40:57.304Z,99156.09
2022-11-09T13:43:40.888Z,99163.88
2022-11-09T13:46:26.065Z,99155.47
2022-11-09T13:48:54.145Z,99159.56
2022-11-09T13:51:36.222Z,99155.25
2022-11-09T13:54:05.255Z,99166.28
2022-11-09T13:56:39.933Z,99163.59
2022-11-09T13:59:31.846Z,99168.72
2022-11-09T14:02:02.093Z,99170.47
2022-11-09T14:04:43.451Z,99173.84
2022-11-09T14:07:30.748Z,99173.03
2022-11-09T14:10:32.432Z,99168.16
2022-11-09T14:13:20.689Z,99182.06
2022-11-09T14:16:05.944Z,99176.19
2022-11-09T14:19:11.710Z,99176.50
2022-11-09T14:21:47.509Z,99187.84
2022-11-09T14:24:29.477Z,99187.13
2022-11-09T14:27:16.841Z,99176.50
2022-11-09T14:29:57.248Z,99187.94
2022-11-09T14:32:36.607Z,99205.38
2022-11-09T14:35:21.762Z,99203.09
2022-11-09T14:37:54.293Z,99203.31
2022-11-09T14:40:31.374Z,99197.53
2022-11-09T14:43:16.149Z,99200.38
2022-11-09T14:45:56.084Z,99203.28
2022-11-09T14:48:24.713Z,99211.34
2022-11-09T14:50:58.840Z,99215.81
2022-11-09T14:53:33.267Z,99223.72
2022-11-09T14:56:05.332Z,99224.78
2022-11-09T14:58:35.922Z,99233.47
2022-11-09T15:01:26.926Z,99245.66
2022-11-09T15:04:16.738Z,99246.75
2022-11-09T15:06:52.868Z,99247.69
2022-11-09T15:09:25.699Z,99253.75
2022-11-09T15:11:52.957Z,99253.88
2022-11-09T15:14:28.191Z,99254.81
2022-11-09T15:17:32.160Z,99264.34
2022-11-09T15:20:08.834Z,99272.19
2022-11-09T15:22:58.873Z,99267.22
2022-11-09T15:25:32.360Z,99270.84
2022-11-09T15:28:14.156Z,99275.34
2022-11-09T15:31:07.296Z,99274.66
2022-11-09T15:33:33.919Z,99271.41
2022-11-09T15:36:17.699Z,99274.03
2022-11-09T15:38:56.650Z,99268.25
2022-11-09T15:41:24.886Z,99281.25
2022-11-09T15:43:51.645Z,99288.16
2022-11-09T15:46:43.387Z,99284.03
2022-11-09T15:49:25.364Z,99282.63
2022-11-09T15:51:53.529Z,99293.91
2022-11-09T15:54:22.907Z,99302.13
2022-11-09T15:56:50.136Z,99300.94
2022-11-09T15:59:23.528Z,99305.75
2022-11-09T16:01:51.057Z,99320.56
2022-11-09T16:04:18.542Z,99318.28
2022-11-09T16:06:46.721Z,99315.13
2022-11-09T16:09:14.401Z,99321.28
2022-11-09T16:11:41.530Z,99322.28
2022-11-09T16:14:08.518Z,99331.78
2022-11-09T16:16:35.257Z,99340.38
2022-11-09T16:19:02.180Z,99337.06
2022-11-09T16:21:28.937Z,99349.94
2022-11-09T16:23:58.432Z,99350.03
2022-11-09T16:26:25.929Z,99354.38
2022-11-09T16:28:54.903Z,99356.13
2022-11-09T16:31:41.087Z,99353.69
2022-11-09T16:34:08.547Z,99361.47
2022-11-09T16:36:37.785Z,99364.94
2022-11-09T16:39:12.545Z,99367.47
2022-11-09T16:41:41.807Z,99365.03
2022-11-09T16:44:08.661Z,99366.75
2022-11-09T16:46:35.491Z,99372.69
2022-11-09T16:49:03.362Z,99381.16
2022-11-09T16:51:30.863Z,99385.41
2022-11-09T16:53:57.664Z,99390.56
2022-11-09T16:56:24.805Z,99401.53
2022-11-09T16:58:51.903Z,99414.25
2022-11-09T17:01:23.029Z,99409.97
2022-11-09T17:03:50.372Z,99408.19
2022-11-09T17:06:17.100Z,99413.25
2022-11-09T17:08:44.045Z,99431.06
2022-11-09T17:11:15.003Z,99422.47
2022-11-09T17:13:42.137Z,99431.84
2022-11-09T17:16:13.500Z,99431.84
2022-11-09T17:18:42.645Z,99436.13
2022-11-09T17:21:16.618Z,99436.97
2022-11-09T17:23:44.240Z,99436.97
2022-11-09T17:26:11.304Z,99439.59
2022-11-09T17:28:42.896Z,99446.38
2022-11-09T17:31:16.092Z,99455.72
2022-11-09T17:33:44.002Z,99448.97
2022-11-09T17:36:13.979Z,99462.63
2022-11-09T17:38:41.517Z,99462.69
2022-11-09T17:41:12.237Z,99461.06
2022-11-09T17:43:41.653Z,99461.22
2022-11-09T17:46:13.960Z,99474.97
2022-11-09T17:48:43.432Z,99484.47
2022-11-09T17:51:11.965Z,99482.00
2022-11-09T17:53:39.455Z,99482.13
2022-11-09T17:56:08.411Z,99489.03
2022-11-09T17:58:39.442Z,99489.19
2022-11-09T18:01:16.604Z,99500.38
2022-11-09T18:03:44.015Z,99508.19
2022-11-09T18:06:15.786Z,99507.41
2022-11-09T18:08:43.820Z,99513.41
2022-11-09T18:11:12.249Z,99520.31
2022-11-09T18:13:39.628Z,99518.66
2022-11-09T18:16:13.319Z,99520.44
2022-11-09T18:18:44.777Z,99523.94
2022-11-09T18:21:19.939Z,99525.72
2022-11-09T18:23:46.924Z,99530.88
2022-11-09T18:26:14.468Z,99530.91
2022-11-09T18:28:42.658Z,99530.13
2022-11-09T18:31:12.817Z,99540.34
2022-11-09T18:33:41.127Z,99539.56
2022-11-09T18:36:12.084Z,99551.50
2022-11-09T18:38:39.526Z,99546.47
2022-11-09T18:41:19.385Z,99551.63
2022-11-09T18:43:46.729Z,99555.97
2022-11-09T18:46:16.244Z,99563.63
2022-11-09T18:48:44.109Z,99560.28
2022-11-09T18:51:11.894Z,99567.06
2022-11-09T18:53:45.552Z,99573.06
2022-11-09T18:56:21.607Z,99563.75
2022-11-09T18:58:52.500Z,99564.66
2022-11-09T19:01:21.005Z,99565.53
2022-11-09T19:03:47.819Z,99568.13
2022-11-09T19:06:18.132Z,99575.81
2022-11-09T19:09:04.509Z,99575.84
2022-11-09T19:11:32.090Z,99580.19
2022-11-09T19:13:59.110Z,99592.94
2022-11-09T19:16:27.391Z,99588.72
2022-11-09T19:18:54.491Z,99587.00
2022-11-09T19:21:57.894Z,99592.09
2022-11-09T19:24:28.458Z,99603.19
2022-11-09T19:26:55.748Z,99598.97
2022-11-09T19:29:22.605Z,99596.44
2022-11-09T19:31:49.688Z,99613.41
2022-11-09T19:34:19.984Z,99607.47
2022-11-09T19:36:47.138Z,99609.16
2022-11-09T19:39:15.538Z,99611.69
2022-11-09T19:41:43.259Z,99615.13
2022-11-09T19:44:12.990Z,99615.97
2022-11-09T19:46:39.938Z,99621.94
2022-11-09T19:49:07.266Z,99621.97
2022-11-09T19:51:34.896Z,99619.47
2022-11-09T19:54:04.585Z,99623.75
2022-11-09T19:56:32.809Z,99628.91
2022-11-09T19:59:02.035Z,99630.59
2022-11-09T20:01:30.602Z,99635.75
2022-11-09T20:04:00.120Z,99642.56
2022-11-09T20:06:28.748Z,99650.25
2022-11-09T20:08:55.952Z,99648.56
2022-11-09T20:11:43.872Z,99653.72
2022-11-09T20:14:12.416Z,99662.22
2022-11-09T20:16:40.914Z,99665.66
2022-11-09T20:19:10.984Z,99669.00
2022-11-09T20:21:40.070Z,99672.41
2022-11-09T20:24:07.800Z,99680.91
2022-11-09T20:26:34.599Z,99685.94
2022-11-09T20:29:01.370Z,99685.03
2022-11-09T20:31:28.222Z,99695.19
2022-11-09T20:33:56.578Z,99697.72
2022-11-09T20:36:23.383Z,99706.13
2022-11-09T20:38:50.115Z,99706.09
2022-11-09T20:41:18.740Z,99713.69
2022-11-09T20:43:48.532Z,99710.22
2022-11-09T20:46:19.114Z,99722.91
2022-11-09T20:48:54.207Z,99714.38
2022-11-09T20:51:23.585Z,99716.91
2022-11-09T20:53:51.514Z,99730.44
2022-11-09T20:56:19.848Z,99727.78
2022-11-09T20:58:47.451Z,99736.22
2022-11-09T21:01:19.868Z,99743.81
2022-11-09T21:03:48.816Z,99745.50
2022-11-09T21:06:15.832Z,99741.25
2022-11-09T21:08:54.576Z,99753.91
2022-11-09T21:11:23.789Z,99759.00
2022-11-09T21:13:53.097Z,99757.28
2022-11-09T21:16:22.456Z,99760.69
2022-11-09T21:18:49.816Z,99767.50
2022-11-09T21:21:20.467Z,99763.25
2022-11-09T21:24:06.757Z,99766.66
2022-11-09T21:26:52.141Z,99764.19
2022-11-09T21:29:43.017Z,99772.72
2022-11-09T21:32:11.944Z,99771.06
2022-11-09T21:34:39.214Z,99778.72
2022-11-09T21:37:06.786Z,99776.13
2022-11-09T21:39:34.030Z,99782.97
2022-11-09T21:42:02.072Z,99779.63
2022-11-09T21:44:31.849Z,99782.16
2022-11-09T21:46:59.884Z,99778.78
2022-11-09T21:49:27.089Z,99785.59
2022-11-09T21:51:54.705Z,99785.63
2022-11-09T21:54:22.259Z,99783.94
2022-11-09T21:56:50.664Z,99792.47
2022-11-09T21:59:17.725Z,99789.09
2022-11-09T22:01:45.474Z,99789.91
2022-11-09T22:04:13.310Z,99803.53
2022-11-09T22:06:43.197Z,99795.94
2022-11-09T22:09:18.318Z,99795.09
2022-11-09T22:12:04.296Z,99795.13
2022-11-09T22:14:50.003Z,99801.16
2022-11-09T22:17:16.796Z,99802.91
2022-11-09T22:20:09.716Z,99803.75
2022-11-09T22:22:36.972Z,99806.38
2022-11-09T22:25:04.339Z,99809.78
2022-11-09T22:27:32.277Z,99805.53
2022-11-09T22:29:59.198Z,99803.00
2022-11-09T22:32:26.517Z,99807.22
2022-11-09T22:34:53.282Z,99812.31
2022-11-09T22:37:20.083Z,99810.63
2022-11-09T22:39:47.628Z,99814.91
2022-11-09T22:42:14.875Z,99807.28
2022-11-09T22:44:41.622Z,99812.44
2022-11-09T22:47:08.593Z,99818.41
2022-11-09T22:49:36.625Z,99822.72
2022-11-09T22:52:04.195Z,99823.56
2022-11-09T22:54:30.987Z,99825.31
2022-11-09T22:56:57.698Z,99831.31
2022-11-09T22:59:24.379Z,99828.81
2022-11-09T23:01:51.116Z,99836.50
2022-11-09T23:04:17.898Z,99834.00
2022-11-09T23:06:44.780Z,99846.81
2022-11-09T23:09:11.623Z,99851.94
2022-11-09T23:11:38.368Z,99857.91
2022-11-09T23:14:05.212Z,99869.81
2022-11-09T23:16:31.931Z,99868.94
2022-11-09T23:18:58.617Z,99871.53
2022-11-09T23:21:35.477Z,99865.63
2022-11-09T23:24:06.288Z,99870.75
2022-11-09T23:26:34.334Z,99881.78
2022-11-09T23:29:01.471Z,99875.84
2022-11-09T23:31:28.390Z,99892.78
2022-11-09T23:33:57.415Z,99889.34
2022-11-09T23:36:26.423Z,99891.88
2022-11-09T23:38:53.493Z,99890.13
2022-11-09T23:41:21.172Z,99904.59
2022-11-09T23:43:50.005Z,99912.22
2022-11-09T23:46:17.941Z,99907.97
2022-11-09T23:48:45.166Z,99904.56
2022-11-09T23:51:12.025Z,99916.44
2022-11-09T23:53:39.422Z,99930.00
2022-11-09T23:56:10.548Z,99924.91
2022-11-09T23:58:38.183Z,99929.16
